Terminal Aerodrome Forecast
Issued by NWS Bismarck, ND

Home | Current Version | Previous Version | Graphics & Text | Print | Product List | Glossary On
Versions: 1 2 3 4 5 6 7 8 9 10 11 12 13 14 15 16 17 18 19 20 21 22 23 24 25 26
501
FTUS43 KBIS 101733
TAFBIS
TAF
KBIS 101733Z 1018/1118 29011KT P6SM BKN120
     FM110100 29010KT P6SM FEW090
     FM110600 30014G20KT P6SM SCT040 BKN090
     FM110800 31021G32KT P6SM -SHSN BKN025 OVC035
     FM111200 32019G29KT P6SM -SHSN OVC020
     FM111500 32016G25KT P6SM -SHSN OVC015=

USA.gov is the U.S. government's official web portal to all federal, state and local government web resources and services.